sensor_id;sensor_type;location;lat;lon;timestamp;P1;durP1;ratioP1;P2;durP2;ratioP2
9260;SDS011;4667;42.726;23.252;2024-03-06T00:01:15;25.63;;;15.83;;
9260;SDS011;4667;42.726;23.252;2024-03-06T00:03:42;19.93;;;14.70;;
9260;SDS011;4667;42.726;23.252;2024-03-06T00:06:08;24.53;;;15.77;;
9260;SDS011;4667;42.726;23.252;2024-03-06T00:08:35;23.13;;;14.77;;
9260;SDS011;4667;42.726;23.252;2024-03-06T00:11:04;23.87;;;16.13;;
9260;SDS011;4667;42.726;23.252;2024-03-06T00:13:31;22.23;;;15.33;;
9260;SDS011;4667;42.726;23.252;2024-03-06T00:15:58;25.67;;;14.70;;
9260;SDS011;4667;42.726;23.252;2024-03-06T00:18:25;23.30;;;15.77;;
9260;SDS011;4667;42.726;23.252;2024-03-06T00:20:52;23.13;;;14.03;;
9260;SDS011;4667;42.726;23.252;2024-03-06T00:23:19;23.47;;;15.20;;
9260;SDS011;4667;42.726;23.252;2024-03-06T00:25:46;21.73;;;14.97;;
9260;SDS011;4667;42.726;23.252;2024-03-06T00:28:14;24.13;;;14.97;;
9260;SDS011;4667;42.726;23.252;2024-03-06T00:30:41;20.33;;;14.27;;
9260;SDS011;4667;42.726;23.252;2024-03-06T00:33:08;23.53;;;13.80;;
9260;SDS011;4667;42.726;23.252;2024-03-06T00:35:35;24.23;;;14.57;;
9260;SDS011;4667;42.726;23.252;2024-03-06T00:38:02;21.57;;;15.97;;
9260;SDS011;4667;42.726;23.252;2024-03-06T00:40:29;26.17;;;17.53;;
9260;SDS011;4667;42.726;23.252;2024-03-06T00:42:57;21.93;;;14.83;;
9260;SDS011;4667;42.726;23.252;2024-03-06T00:45:25;25.10;;;16.57;;
9260;SDS011;4667;42.726;23.252;2024-03-06T00:47:52;28.33;;;16.90;;
9260;SDS011;4667;42.726;23.252;2024-03-06T00:50:19;29.00;;;17.10;;
9260;SDS011;4667;42.726;23.252;2024-03-06T00:52:47;28.83;;;18.20;;
9260;SDS011;4667;42.726;23.252;2024-03-06T00:55:15;26.10;;;17.47;;
9260;SDS011;4667;42.726;23.252;2024-03-06T00:57:42;26.27;;;17.73;;
9260;SDS011;4667;42.726;23.252;2024-03-06T01:00:09;26.40;;;18.00;;
9260;SDS011;4667;42.726;23.252;2024-03-06T01:02:38;27.03;;;16.83;;
9260;SDS011;4667;42.726;23.252;2024-03-06T01:05:06;25.60;;;17.57;;
9260;SDS011;4667;42.726;23.252;2024-03-06T01:07:34;27.00;;;17.97;;
9260;SDS011;4667;42.726;23.252;2024-03-06T01:10:01;23.47;;;14.93;;
9260;SDS011;4667;42.726;23.252;2024-03-06T01:12:28;25.33;;;16.40;;
9260;SDS011;4667;42.726;23.252;2024-03-06T01:14:55;30.80;;;14.93;;
9260;SDS011;4667;42.726;23.252;2024-03-06T01:17:22;25.07;;;15.80;;
9260;SDS011;4667;42.726;23.252;2024-03-06T01:19:51;25.17;;;16.17;;
9260;SDS011;4667;42.726;23.252;2024-03-06T01:22:18;22.37;;;15.70;;
9260;SDS011;4667;42.726;23.252;2024-03-06T01:24:45;25.53;;;15.00;;
9260;SDS011;4667;42.726;23.252;2024-03-06T01:27:14;26.70;;;15.67;;
9260;SDS011;4667;42.726;23.252;2024-03-06T01:29:42;25.07;;;16.03;;
9260;SDS011;4667;42.726;23.252;2024-03-06T01:32:09;24.97;;;16.20;;
9260;SDS011;4667;42.726;23.252;2024-03-06T01:34:36;22.43;;;14.40;;
9260;SDS011;4667;42.726;23.252;2024-03-06T01:37:05;22.13;;;14.90;;
9260;SDS011;4667;42.726;23.252;2024-03-06T01:39:32;23.90;;;16.53;;
9260;SDS011;4667;42.726;23.252;2024-03-06T01:42:00;22.03;;;14.53;;
9260;SDS011;4667;42.726;23.252;2024-03-06T01:44:28;25.87;;;15.00;;
9260;SDS011;4667;42.726;23.252;2024-03-06T01:46:55;23.93;;;15.57;;
9260;SDS011;4667;42.726;23.252;2024-03-06T01:49:22;26.60;;;16.47;;
9260;SDS011;4667;42.726;23.252;2024-03-06T01:51:51;23.60;;;15.27;;
9260;SDS011;4667;42.726;23.252;2024-03-06T01:54:23;23.23;;;15.63;;
9260;SDS011;4667;42.726;23.252;2024-03-06T01:56:50;26.17;;;17.27;;
9260;SDS011;4667;42.726;23.252;2024-03-06T01:59:18;27.20;;;16.97;;
9260;SDS011;4667;42.726;23.252;2024-03-06T02:01:47;27.07;;;16.93;;
9260;SDS011;4667;42.726;23.252;2024-03-06T02:04:19;30.90;;;19.07;;
9260;SDS011;4667;42.726;23.252;2024-03-06T02:06:46;30.50;;;18.40;;
9260;SDS011;4667;42.726;23.252;2024-03-06T02:09:14;26.73;;;16.37;;
9260;SDS011;4667;42.726;23.252;2024-03-06T02:11:43;26.40;;;15.93;;
9260;SDS011;4667;42.726;23.252;2024-03-06T02:14:11;24.03;;;16.73;;
9260;SDS011;4667;42.726;23.252;2024-03-06T02:16:38;27.50;;;17.07;;
9260;SDS011;4667;42.726;23.252;2024-03-06T02:19:05;21.80;;;15.83;;
9260;SDS011;4667;42.726;23.252;2024-03-06T02:21:34;22.50;;;15.07;;
9260;SDS011;4667;42.726;23.252;2024-03-06T02:24:01;25.53;;;16.07;;
9260;SDS011;4667;42.726;23.252;2024-03-06T02:26:28;25.23;;;15.77;;
9260;SDS011;4667;42.726;23.252;2024-03-06T02:28:55;23.93;;;15.27;;
9260;SDS011;4667;42.726;23.252;2024-03-06T02:31:22;26.23;;;16.07;;
9260;SDS011;4667;42.726;23.252;2024-03-06T02:33:49;25.07;;;15.67;;
9260;SDS011;4667;42.726;23.252;2024-03-06T02:36:16;26.00;;;14.83;;
9260;SDS011;4667;42.726;23.252;2024-03-06T02:38:45;23.07;;;14.37;;
9260;SDS011;4667;42.726;23.252;2024-03-06T02:41:12;21.23;;;14.70;;
9260;SDS011;4667;42.726;23.252;2024-03-06T02:43:41;21.93;;;14.13;;
9260;SDS011;4667;42.726;23.252;2024-03-06T02:46:08;23.33;;;14.43;;
9260;SDS011;4667;42.726;23.252;2024-03-06T02:48:35;21.27;;;14.40;;
9260;SDS011;4667;42.726;23.252;2024-03-06T02:51:02;23.17;;;14.63;;
9260;SDS011;4667;42.726;23.252;2024-03-06T02:53:29;21.13;;;14.63;;
9260;SDS011;4667;42.726;23.252;2024-03-06T02:55:58;22.17;;;14.23;;
9260;SDS011;4667;42.726;23.252;2024-03-06T02:58:25;26.87;;;14.03;;
9260;SDS011;4667;42.726;23.252;2024-03-06T03:00:55;22.30;;;15.27;;
9260;SDS011;4667;42.726;23.252;2024-03-06T03:03:22;24.00;;;14.97;;
9260;SDS011;4667;42.726;23.252;2024-03-06T03:05:50;24.33;;;15.27;;
9260;SDS011;4667;42.726;23.252;2024-03-06T03:08:18;23.10;;;14.90;;
9260;SDS011;4667;42.726;23.252;2024-03-06T03:10:45;21.77;;;15.03;;
9260;SDS011;4667;42.726;23.252;2024-03-06T03:13:13;21.33;;;14.77;;
9260;SDS011;4667;42.726;23.252;2024-03-06T03:15:40;23.60;;;15.83;;
9260;SDS011;4667;42.726;23.252;2024-03-06T03:18:08;24.60;;;15.37;;
9260;SDS011;4667;42.726;23.252;2024-03-06T03:20:35;24.40;;;14.57;;
9260;SDS011;4667;42.726;23.252;2024-03-06T03:23:03;25.13;;;14.80;;
9260;SDS011;4667;42.726;23.252;2024-03-06T03:25:31;22.00;;;15.47;;
9260;SDS011;4667;42.726;23.252;2024-03-06T03:27:59;28.27;;;15.97;;
9260;SDS011;4667;42.726;23.252;2024-03-06T03:30:28;22.53;;;15.03;;
9260;SDS011;4667;42.726;23.252;2024-03-06T03:32:55;23.30;;;14.37;;
9260;SDS011;4667;42.726;23.252;2024-03-06T03:35:22;26.87;;;16.40;;
9260;SDS011;4667;42.726;23.252;2024-03-06T03:37:50;22.97;;;14.80;;
9260;SDS011;4667;42.726;23.252;2024-03-06T03:40:17;27.13;;;15.20;;
9260;SDS011;4667;42.726;23.252;2024-03-06T03:42:45;29.27;;;15.63;;
9260;SDS011;4667;42.726;23.252;2024-03-06T03:45:12;27.30;;;15.20;;
9260;SDS011;4667;42.726;23.252;2024-03-06T03:47:41;24.47;;;14.87;;
9260;SDS011;4667;42.726;23.252;2024-03-06T03:50:08;25.20;;;15.90;;
9260;SDS011;4667;42.726;23.252;2024-03-06T03:52:36;25.37;;;15.93;;
9260;SDS011;4667;42.726;23.252;2024-03-06T03:55:06;29.90;;;15.63;;
9260;SDS011;4667;42.726;23.252;2024-03-06T03:57:34;25.47;;;15.43;;
9260;SDS011;4667;42.726;23.252;2024-03-06T04:00:01;19.60;;;13.60;;
9260;SDS011;4667;42.726;23.252;2024-03-06T04:02:35;22.77;;;14.33;;
9260;SDS011;4667;42.726;23.252;2024-03-06T04:05:05;23.73;;;14.00;;
9260;SDS011;4667;42.726;23.252;2024-03-06T04:07:34;26.20;;;13.50;;
9260;SDS011;4667;42.726;23.252;2024-03-06T04:10:03;25.43;;;15.30;;
9260;SDS011;4667;42.726;23.252;2024-03-06T04:12:31;25.23;;;14.63;;
9260;SDS011;4667;42.726;23.252;2024-03-06T04:14:58;23.93;;;14.60;;
9260;SDS011;4667;42.726;23.252;2024-03-06T04:17:27;25.20;;;14.83;;
9260;SDS011;4667;42.726;23.252;2024-03-06T04:19:54;23.23;;;15.03;;
9260;SDS011;4667;42.726;23.252;2024-03-06T04:22:23;21.63;;;13.90;;
9260;SDS011;4667;42.726;23.252;2024-03-06T04:24:51;29.57;;;15.73;;
9260;SDS011;4667;42.726;23.252;2024-03-06T04:27:18;22.70;;;14.37;;
9260;SDS011;4667;42.726;23.252;2024-03-06T04:29:45;21.50;;;14.40;;
9260;SDS011;4667;42.726;23.252;2024-03-06T04:32:12;27.93;;;15.63;;
9260;SDS011;4667;42.726;23.252;2024-03-06T04:39:48;23.00;;;14.23;;
9260;SDS011;4667;42.726;23.252;2024-03-06T04:42:31;26.17;;;14.90;;
9260;SDS011;4667;42.726;23.252;2024-03-06T04:44:58;24.03;;;15.13;;
9260;SDS011;4667;42.726;23.252;2024-03-06T04:47:25;22.57;;;14.80;;
9260;SDS011;4667;42.726;23.252;2024-03-06T04:49:52;24.57;;;15.67;;
9260;SDS011;4667;42.726;23.252;2024-03-06T04:52:19;23.07;;;15.40;;
9260;SDS011;4667;42.726;23.252;2024-03-06T04:54:48;20.53;;;13.87;;
9260;SDS011;4667;42.726;23.252;2024-03-06T04:57:15;22.80;;;13.97;;
9260;SDS011;4667;42.726;23.252;2024-03-06T04:59:42;23.40;;;15.80;;
9260;SDS011;4667;42.726;23.252;2024-03-06T05:02:09;28.90;;;14.57;;
9260;SDS011;4667;42.726;23.252;2024-03-06T05:04:36;28.13;;;15.10;;
9260;SDS011;4667;42.726;23.252;2024-03-06T05:07:03;21.40;;;14.60;;
9260;SDS011;4667;42.726;23.252;2024-03-06T05:09:30;27.07;;;16.30;;
9260;SDS011;4667;42.726;23.252;2024-03-06T05:11:58;20.50;;;14.33;;
9260;SDS011;4667;42.726;23.252;2024-03-06T05:14:25;25.33;;;14.97;;
9260;SDS011;4667;42.726;23.252;2024-03-06T05:16:54;23.20;;;14.63;;
9260;SDS011;4667;42.726;23.252;2024-03-06T05:19:21;25.63;;;15.40;;
9260;SDS011;4667;42.726;23.252;2024-03-06T05:21:48;24.60;;;15.03;;
9260;SDS011;4667;42.726;23.252;2024-03-06T05:24:15;28.60;;;15.13;;
9260;SDS011;4667;42.726;23.252;2024-03-06T05:26:42;26.27;;;15.50;;
9260;SDS011;4667;42.726;23.252;2024-03-06T05:29:20;20.87;;;13.17;;
9260;SDS011;4667;42.726;23.252;2024-03-06T05:31:47;23.67;;;13.70;;
9260;SDS011;4667;42.726;23.252;2024-03-06T05:34:15;25.13;;;14.93;;
9260;SDS011;4667;42.726;23.252;2024-03-06T05:36:43;21.60;;;15.00;;
9260;SDS011;4667;42.726;23.252;2024-03-06T05:39:10;23.10;;;14.90;;
9260;SDS011;4667;42.726;23.252;2024-03-06T05:41:38;25.67;;;14.90;;
9260;SDS011;4667;42.726;23.252;2024-03-06T05:44:10;28.40;;;14.90;;
9260;SDS011;4667;42.726;23.252;2024-03-06T05:46:39;31.30;;;16.07;;
9260;SDS011;4667;42.726;23.252;2024-03-06T05:49:12;24.33;;;14.57;;
9260;SDS011;4667;42.726;23.252;2024-03-06T05:51:39;28.63;;;14.27;;
9260;SDS011;4667;42.726;23.252;2024-03-06T05:54:06;23.80;;;14.43;;
9260;SDS011;4667;42.726;23.252;2024-03-06T05:56:35;28.97;;;14.77;;
9260;SDS011;4667;42.726;23.252;2024-03-06T05:59:04;21.57;;;15.57;;
9260;SDS011;4667;42.726;23.252;2024-03-06T06:01:33;36.47;;;17.83;;
9260;SDS011;4667;42.726;23.252;2024-03-06T06:04:02;31.97;;;18.23;;
9260;SDS011;4667;42.726;23.252;2024-03-06T06:06:29;30.53;;;18.60;;
9260;SDS011;4667;42.726;23.252;2024-03-06T06:08:56;35.30;;;18.87;;
9260;SDS011;4667;42.726;23.252;2024-03-06T06:11:23;42.10;;;19.07;;
9260;SDS011;4667;42.726;23.252;2024-03-06T06:13:50;30.23;;;18.33;;
9260;SDS011;4667;42.726;23.252;2024-03-06T06:16:17;35.93;;;17.37;;
9260;SDS011;4667;42.726;23.252;2024-03-06T06:18:45;32.57;;;17.80;;
9260;SDS011;4667;42.726;23.252;2024-03-06T06:21:14;33.67;;;19.87;;
9260;SDS011;4667;42.726;23.252;2024-03-06T06:23:41;31.83;;;19.87;;
9260;SDS011;4667;42.726;23.252;2024-03-06T06:26:14;35.27;;;20.27;;
9260;SDS011;4667;42.726;23.252;2024-03-06T06:28:41;35.60;;;20.10;;
9260;SDS011;4667;42.726;23.252;2024-03-06T06:31:08;36.10;;;20.50;;
9260;SDS011;4667;42.726;23.252;2024-03-06T06:33:38;44.83;;;19.50;;
9260;SDS011;4667;42.726;23.252;2024-03-06T06:36:07;34.87;;;20.00;;
9260;SDS011;4667;42.726;23.252;2024-03-06T06:38:36;32.23;;;19.10;;
9260;SDS011;4667;42.726;23.252;2024-03-06T06:41:03;38.50;;;20.77;;
9260;SDS011;4667;42.726;23.252;2024-03-06T06:43:30;37.63;;;19.40;;
9260;SDS011;4667;42.726;23.252;2024-03-06T06:45:57;37.03;;;19.97;;
9260;SDS011;4667;42.726;23.252;2024-03-06T06:48:24;39.87;;;19.37;;
9260;SDS011;4667;42.726;23.252;2024-03-06T06:53:42;30.57;;;17.60;;
9260;SDS011;4667;42.726;23.252;2024-03-06T06:56:13;34.83;;;19.50;;
9260;SDS011;4667;42.726;23.252;2024-03-06T06:58:40;40.23;;;17.23;;
9260;SDS011;4667;42.726;23.252;2024-03-06T07:01:08;29.23;;;16.27;;
9260;SDS011;4667;42.726;23.252;2024-03-06T07:03:37;29.20;;;17.63;;
9260;SDS011;4667;42.726;23.252;2024-03-06T07:06:05;29.97;;;17.93;;
9260;SDS011;4667;42.726;23.252;2024-03-06T07:08:33;37.77;;;20.13;;
9260;SDS011;4667;42.726;23.252;2024-03-06T07:11:03;32.57;;;18.63;;
9260;SDS011;4667;42.726;23.252;2024-03-06T07:13:30;30.30;;;19.10;;
9260;SDS011;4667;42.726;23.252;2024-03-06T07:16:02;29.50;;;18.90;;
9260;SDS011;4667;42.726;23.252;2024-03-06T07:18:30;32.20;;;19.03;;
9260;SDS011;4667;42.726;23.252;2024-03-06T07:20:58;30.30;;;18.37;;
9260;SDS011;4667;42.726;23.252;2024-03-06T07:23:25;28.03;;;17.40;;
9260;SDS011;4667;42.726;23.252;2024-03-06T07:25:56;28.23;;;18.13;;
9260;SDS011;4667;42.726;23.252;2024-03-06T07:31:22;30.43;;;15.67;;
9260;SDS011;4667;42.726;23.252;2024-03-06T07:33:50;26.67;;;16.60;;
9260;SDS011;4667;42.726;23.252;2024-03-06T07:36:17;25.53;;;15.97;;
9260;SDS011;4667;42.726;23.252;2024-03-06T07:38:44;27.53;;;16.20;;
9260;SDS011;4667;42.726;23.252;2024-03-06T07:41:12;26.23;;;16.93;;
9260;SDS011;4667;42.726;23.252;2024-03-06T07:43:39;26.43;;;17.37;;
9260;SDS011;4667;42.726;23.252;2024-03-06T07:46:07;33.00;;;18.03;;
9260;SDS011;4667;42.726;23.252;2024-03-06T07:48:41;29.80;;;17.93;;
9260;SDS011;4667;42.726;23.252;2024-03-06T07:51:13;31.77;;;17.50;;
9260;SDS011;4667;42.726;23.252;2024-03-06T07:53:46;34.90;;;18.80;;
9260;SDS011;4667;42.726;23.252;2024-03-06T07:56:14;31.77;;;17.53;;
9260;SDS011;4667;42.726;23.252;2024-03-06T07:58:42;29.53;;;18.23;;
9260;SDS011;4667;42.726;23.252;2024-03-06T08:01:09;33.53;;;17.33;;
9260;SDS011;4667;42.726;23.252;2024-03-06T08:03:39;27.47;;;18.33;;
9260;SDS011;4667;42.726;23.252;2024-03-06T08:06:08;31.87;;;17.97;;
9260;SDS011;4667;42.726;23.252;2024-03-06T08:08:35;25.23;;;16.47;;
9260;SDS011;4667;42.726;23.252;2024-03-06T08:11:02;27.03;;;16.10;;
9260;SDS011;4667;42.726;23.252;2024-03-06T08:13:30;22.97;;;16.90;;
9260;SDS011;4667;42.726;23.252;2024-03-06T08:15:57;27.87;;;19.43;;
9260;SDS011;4667;42.726;23.252;2024-03-06T08:18:29;26.50;;;18.43;;
9260;SDS011;4667;42.726;23.252;2024-03-06T08:20:57;30.07;;;18.00;;
9260;SDS011;4667;42.726;23.252;2024-03-06T08:23:24;28.50;;;18.77;;
9260;SDS011;4667;42.726;23.252;2024-03-06T08:25:51;24.47;;;16.40;;
9260;SDS011;4667;42.726;23.252;2024-03-06T08:28:18;31.07;;;17.93;;
9260;SDS011;4667;42.726;23.252;2024-03-06T08:30:46;26.80;;;17.90;;
9260;SDS011;4667;42.726;23.252;2024-03-06T08:33:13;31.63;;;18.70;;
9260;SDS011;4667;42.726;23.252;2024-03-06T08:35:40;25.27;;;16.47;;
9260;SDS011;4667;42.726;23.252;2024-03-06T08:38:10;23.17;;;17.20;;
9260;SDS011;4667;42.726;23.252;2024-03-06T08:40:37;26.80;;;17.10;;
9260;SDS011;4667;42.726;23.252;2024-03-06T08:43:07;24.10;;;16.63;;
9260;SDS011;4667;42.726;23.252;2024-03-06T08:45:34;28.55;;;16.85;;
9260;SDS011;4667;42.726;23.252;2024-03-06T08:48:01;27.77;;;17.25;;
9260;SDS011;4667;42.726;23.252;2024-03-06T08:50:28;26.23;;;15.97;;
9260;SDS011;4667;42.726;23.252;2024-03-06T08:52:55;27.03;;;16.80;;
9260;SDS011;4667;42.726;23.252;2024-03-06T08:55:27;26.67;;;16.50;;
9260;SDS011;4667;42.726;23.252;2024-03-06T08:57:54;29.93;;;17.97;;
9260;SDS011;4667;42.726;23.252;2024-03-06T09:00:21;29.42;;;18.02;;
9260;SDS011;4667;42.726;23.252;2024-03-06T09:02:48;25.80;;;16.80;;
9260;SDS011;4667;42.726;23.252;2024-03-06T09:05:16;26.05;;;15.77;;
9260;SDS011;4667;42.726;23.252;2024-03-06T09:07:43;22.08;;;15.60;;
9260;SDS011;4667;42.726;23.252;2024-03-06T09:10:10;21.98;;;16.35;;
9260;SDS011;4667;42.726;23.252;2024-03-06T09:12:39;24.25;;;16.80;;
9260;SDS011;4667;42.726;23.252;2024-03-06T09:15:07;22.98;;;15.70;;
9260;SDS011;4667;42.726;23.252;2024-03-06T09:17:34;24.50;;;18.40;;
9260;SDS011;4667;42.726;23.252;2024-03-06T09:20:01;21.55;;;16.13;;
9260;SDS011;4667;42.726;23.252;2024-03-06T09:22:35;19.73;;;13.20;;
9260;SDS011;4667;42.726;23.252;2024-03-06T09:25:03;18.05;;;13.48;;
9260;SDS011;4667;42.726;23.252;2024-03-06T09:27:30;22.67;;;13.55;;
9260;SDS011;4667;42.726;23.252;2024-03-06T09:30:01;17.48;;;12.18;;
9260;SDS011;4667;42.726;23.252;2024-03-06T09:32:31;14.88;;;11.52;;
9260;SDS011;4667;42.726;23.252;2024-03-06T09:34:58;18.52;;;12.77;;
9260;SDS011;4667;42.726;23.252;2024-03-06T09:37:25;18.73;;;12.93;;
9260;SDS011;4667;42.726;23.252;2024-03-06T09:39:52;17.80;;;11.30;;
9260;SDS011;4667;42.726;23.252;2024-03-06T09:42:20;16.35;;;10.77;;
9260;SDS011;4667;42.726;23.252;2024-03-06T09:44:47;17.52;;;11.35;;
9260;SDS011;4667;42.726;23.252;2024-03-06T09:47:16;17.80;;;11.73;;
9260;SDS011;4667;42.726;23.252;2024-03-06T09:49:50;15.40;;;10.57;;
9260;SDS011;4667;42.726;23.252;2024-03-06T09:52:18;17.15;;;11.93;;
9260;SDS011;4667;42.726;23.252;2024-03-06T09:54:46;24.42;;;16.48;;
9260;SDS011;4667;42.726;23.252;2024-03-06T09:57:14;15.63;;;10.10;;
9260;SDS011;4667;42.726;23.252;2024-03-06T09:59:41;13.82;;;8.90;;
9260;SDS011;4667;42.726;23.252;2024-03-06T10:02:10;16.40;;;10.15;;
9260;SDS011;4667;42.726;23.252;2024-03-06T10:05:02;14.70;;;10.32;;
9260;SDS011;4667;42.726;23.252;2024-03-06T10:07:30;12.10;;;9.55;;
9260;SDS011;4667;42.726;23.252;2024-03-06T10:09:57;17.20;;;10.20;;
9260;SDS011;4667;42.726;23.252;2024-03-06T10:12:24;14.48;;;11.35;;
9260;SDS011;4667;42.726;23.252;2024-03-06T10:14:53;17.33;;;10.35;;
9260;SDS011;4667;42.726;23.252;2024-03-06T10:17:23;13.73;;;9.77;;
9260;SDS011;4667;42.726;23.252;2024-03-06T10:19:52;11.57;;;8.98;;
9260;SDS011;4667;42.726;23.252;2024-03-06T10:22:19;14.82;;;9.10;;
9260;SDS011;4667;42.726;23.252;2024-03-06T10:24:49;13.68;;;8.88;;
9260;SDS011;4667;42.726;23.252;2024-03-06T10:27:17;13.00;;;8.85;;
9260;SDS011;4667;42.726;23.252;2024-03-06T10:29:44;11.38;;;7.82;;
9260;SDS011;4667;42.726;23.252;2024-03-06T10:32:16;11.57;;;7.85;;
9260;SDS011;4667;42.726;23.252;2024-03-06T10:34:47;13.55;;;7.85;;
9260;SDS011;4667;42.726;23.252;2024-03-06T10:37:14;14.75;;;8.35;;
9260;SDS011;4667;42.726;23.252;2024-03-06T10:39:41;9.85;;;7.93;;
9260;SDS011;4667;42.726;23.252;2024-03-06T10:42:09;13.30;;;9.05;;
9260;SDS011;4667;42.726;23.252;2024-03-06T10:44:41;12.60;;;8.25;;
9260;SDS011;4667;42.726;23.252;2024-03-06T10:47:14;11.80;;;7.85;;
9260;SDS011;4667;42.726;23.252;2024-03-06T10:49:42;10.45;;;7.63;;
9260;SDS011;4667;42.726;23.252;2024-03-06T10:52:11;10.75;;;7.45;;
9260;SDS011;4667;42.726;23.252;2024-03-06T10:54:41;13.80;;;8.13;;
9260;SDS011;4667;42.726;23.252;2024-03-06T10:57:11;12.88;;;8.70;;
9260;SDS011;4667;42.726;23.252;2024-03-06T10:59:40;10.50;;;8.20;;
9260;SDS011;4667;42.726;23.252;2024-03-06T11:02:08;11.00;;;8.20;;
9260;SDS011;4667;42.726;23.252;2024-03-06T11:04:37;13.15;;;7.68;;
9260;SDS011;4667;42.726;23.252;2024-03-06T11:07:06;13.07;;;7.47;;
9260;SDS011;4667;42.726;23.252;2024-03-06T11:09:34;11.48;;;7.43;;
9260;SDS011;4667;42.726;23.252;2024-03-06T11:12:03;9.45;;;8.07;;
9260;SDS011;4667;42.726;23.252;2024-03-06T11:14:32;10.02;;;7.35;;
9260;SDS011;4667;42.726;23.252;2024-03-06T11:17:00;12.73;;;7.50;;
9260;SDS011;4667;42.726;23.252;2024-03-06T11:19:29;10.30;;;6.95;;
9260;SDS011;4667;42.726;23.252;2024-03-06T11:21:56;11.63;;;7.10;;
9260;SDS011;4667;42.726;23.252;2024-03-06T11:24:31;10.25;;;6.78;;
9260;SDS011;4667;42.726;23.252;2024-03-06T11:27:01;10.20;;;6.28;;
9260;SDS011;4667;42.726;23.252;2024-03-06T11:32:36;6.95;;;6.25;;
9260;SDS011;4667;42.726;23.252;2024-03-06T11:35:03;7.03;;;5.88;;
9260;SDS011;4667;42.726;23.252;2024-03-06T11:37:33;9.05;;;6.38;;
9260;SDS011;4667;42.726;23.252;2024-03-06T11:40:01;12.57;;;6.60;;
9260;SDS011;4667;42.726;23.252;2024-03-06T11:42:35;8.55;;;6.03;;
9260;SDS011;4667;42.726;23.252;2024-03-06T11:45:12;9.10;;;6.93;;
9260;SDS011;4667;42.726;23.252;2024-03-06T11:47:55;7.88;;;6.32;;
9260;SDS011;4667;42.726;23.252;2024-03-06T11:50:23;9.63;;;6.50;;
9260;SDS011;4667;42.726;23.252;2024-03-06T11:52:51;10.02;;;6.22;;
9260;SDS011;4667;42.726;23.252;2024-03-06T11:55:20;7.05;;;5.43;;
9260;SDS011;4667;42.726;23.252;2024-03-06T11:57:49;7.28;;;5.57;;
9260;SDS011;4667;42.726;23.252;2024-03-06T12:00:16;10.48;;;6.57;;
9260;SDS011;4667;42.726;23.252;2024-03-06T12:02:44;8.85;;;6.22;;
9260;SDS011;4667;42.726;23.252;2024-03-06T12:05:11;8.27;;;6.32;;
9260;SDS011;4667;42.726;23.252;2024-03-06T12:07:44;12.90;;;6.85;;
9260;SDS011;4667;42.726;23.252;2024-03-06T12:10:12;7.50;;;5.93;;
9260;SDS011;4667;42.726;23.252;2024-03-06T12:12:40;9.35;;;6.28;;
9260;SDS011;4667;42.726;23.252;2024-03-06T12:15:10;11.48;;;6.93;;
9260;SDS011;4667;42.726;23.252;2024-03-06T12:17:41;8.48;;;5.93;;
